sensor_id;sensor_type;location;lat;lon;timestamp;pressure;altitude;pressure_sealevel;temperature;humidity
54924;BME280;40825;52.270;20.984;2023-02-26T00:00:33;99125.97;;;0.40;94.64
54924;BME280;40825;52.270;20.984;2023-02-26T00:03:19;99125.43;;;0.39;94.26
54924;BME280;40825;52.270;20.984;2023-02-26T00:05:44;99132.90;;;0.34;92.96
54924;BME280;40825;52.270;20.984;2023-02-26T00:08:10;99135.45;;;0.30;92.82
54924;BME280;40825;52.270;20.984;2023-02-26T00:10:35;99141.58;;;0.26;93.18
54924;BME280;40825;52.270;20.984;2023-02-26T00:13:01;99143.83;;;0.24;93.08
54924;BME280;40825;52.270;20.984;2023-02-26T00:15:26;99144.58;;;0.22;93.13
54924;BME280;40825;52.270;20.984;2023-02-26T00:18:03;99150.21;;;0.20;93.73
54924;BME280;40825;52.270;20.984;2023-02-26T00:20:30;99155.42;;;0.20;93.04
54924;BME280;40825;52.270;20.984;2023-02-26T00:22:56;99162.76;;;0.18;93.58
54924;BME280;40825;52.270;20.984;2023-02-26T00:25:22;99166.27;;;0.17;93.59
54924;BME280;40825;52.270;20.984;2023-02-26T00:27:48;99172.55;;;0.21;93.55
54924;BME280;40825;52.270;20.984;2023-02-26T00:30:14;99176.27;;;0.20;93.28
54924;BME280;40825;52.270;20.984;2023-02-26T00:32:40;99177.86;;;0.19;93.14
54924;BME280;40825;52.270;20.984;2023-02-26T00:35:08;99179.42;;;0.17;93.48
54924;BME280;40825;52.270;20.984;2023-02-26T00:38:01;99183.20;;;0.19;93.45
54924;BME280;40825;52.270;20.984;2023-02-26T00:41:03;99175.31;;;0.18;91.80
54924;BME280;40825;52.270;20.984;2023-02-26T00:43:29;99186.23;;;0.10;92.09
54924;BME280;40825;52.270;20.984;2023-02-26T00:56:23;99204.98;;;0.05;92.24
54924;BME280;40825;52.270;20.984;2023-02-26T00:58:49;99209.77;;;0.07;92.33
54924;BME280;40825;52.270;20.984;2023-02-26T01:01:14;99212.95;;;0.07;91.84
54924;BME280;40825;52.270;20.984;2023-02-26T01:03:40;99213.75;;;0.06;92.01
54924;BME280;40825;52.270;20.984;2023-02-26T01:06:10;99220.61;;;0.07;92.25
54924;BME280;40825;52.270;20.984;2023-02-26T01:08:58;99222.15;;;0.08;92.27
54924;BME280;40825;52.270;20.984;2023-02-26T01:11:25;99225.63;;;0.08;91.90
54924;BME280;40825;52.270;20.984;2023-02-26T01:13:51;99228.29;;;0.07;92.16
54924;BME280;40825;52.270;20.984;2023-02-26T01:16:21;99230.48;;;0.10;91.81
54924;BME280;40825;52.270;20.984;2023-02-26T01:18:57;99231.68;;;0.09;91.59
54924;BME280;40825;52.270;20.984;2023-02-26T01:21:32;99233.98;;;0.06;91.95
54924;BME280;40825;52.270;20.984;2023-02-26T01:24:00;99238.58;;;0.06;92.08
54924;BME280;40825;52.270;20.984;2023-02-26T01:26:28;99247.70;;;0.07;92.13
54924;BME280;40825;52.270;20.984;2023-02-26T01:28:54;99251.13;;;0.05;90.63
54924;BME280;40825;52.270;20.984;2023-02-26T01:31:38;99256.88;;;0.03;91.30
54924;BME280;40825;52.270;20.984;2023-02-26T01:34:21;99262.23;;;0.02;90.97
54924;BME280;40825;52.270;20.984;2023-02-26T01:39:46;99270.91;;;0.01;90.26
54924;BME280;40825;52.270;20.984;2023-02-26T01:42:19;99280.80;;;-0.04;89.33
54924;BME280;40825;52.270;20.984;2023-02-26T01:44:55;99282.17;;;-0.07;89.95
54924;BME280;40825;52.270;20.984;2023-02-26T01:47:32;99287.45;;;-0.09;89.25
54924;BME280;40825;52.270;20.984;2023-02-26T01:50:31;99294.84;;;-0.11;89.73
54924;BME280;40825;52.270;20.984;2023-02-26T01:53:23;99301.40;;;-0.11;90.21
54924;BME280;40825;52.270;20.984;2023-02-26T01:55:59;99306.23;;;-0.08;90.57
54924;BME280;40825;52.270;20.984;2023-02-26T01:58:27;99309.41;;;-0.07;89.19
54924;BME280;40825;52.270;20.984;2023-02-26T02:02:33;99312.39;;;-0.10;89.58
54924;BME280;40825;52.270;20.984;2023-02-26T02:05:12;99316.11;;;-0.15;88.44
54924;BME280;40825;52.270;20.984;2023-02-26T02:07:41;99324.45;;;-0.20;89.04
54924;BME280;40825;52.270;20.984;2023-02-26T02:10:07;99336.71;;;-0.21;88.12
54924;BME280;40825;52.270;20.984;2023-02-26T02:21:03;99366.89;;;-0.30;86.41
54924;BME280;40825;52.270;20.984;2023-02-26T02:31:40;99390.05;;;-0.31;88.20
54924;BME280;40825;52.270;20.984;2023-02-26T02:36:57;99400.64;;;-0.30;86.94
54924;BME280;40825;52.270;20.984;2023-02-26T02:39:31;99403.34;;;-0.31;87.42
54924;BME280;40825;52.270;20.984;2023-02-26T02:44:47;99408.55;;;-0.25;87.51
54924;BME280;40825;52.270;20.984;2023-02-26T02:47:17;99408.91;;;-0.23;88.18
54924;BME280;40825;52.270;20.984;2023-02-26T02:49:50;99406.64;;;-0.21;86.66
54924;BME280;40825;52.270;20.984;2023-02-26T02:52:23;99411.94;;;-0.22;86.75
54924;BME280;40825;52.270;20.984;2023-02-26T02:55:08;99410.27;;;-0.23;86.81
54924;BME280;40825;52.270;20.984;2023-02-26T02:57:48;99414.88;;;-0.23;86.98
54924;BME280;40825;52.270;20.984;2023-02-26T03:00:16;99419.41;;;-0.23;87.49
54924;BME280;40825;52.270;20.984;2023-02-26T03:02:54;99421.73;;;-0.24;87.37
54924;BME280;40825;52.270;20.984;2023-02-26T03:05:23;99420.50;;;-0.24;86.98
54924;BME280;40825;52.270;20.984;2023-02-26T03:07:58;99430.47;;;-0.24;86.89
54924;BME280;40825;52.270;20.984;2023-02-26T03:10:25;99431.06;;;-0.24;87.45
54924;BME280;40825;52.270;20.984;2023-02-26T03:12:50;99436.18;;;-0.23;86.33
54924;BME280;40825;52.270;20.984;2023-02-26T03:15:20;99441.02;;;-0.24;86.24
54924;BME280;40825;52.270;20.984;2023-02-26T03:17:57;99452.58;;;-0.26;86.31
54924;BME280;40825;52.270;20.984;2023-02-26T03:20:43;99459.85;;;-0.27;86.13
54924;BME280;40825;52.270;20.984;2023-02-26T03:23:23;99467.58;;;-0.30;85.23
54924;BME280;40825;52.270;20.984;2023-02-26T03:26:21;99475.92;;;-0.31;86.11
54924;BME280;40825;52.270;20.984;2023-02-26T03:28:58;99480.88;;;-0.28;86.27
54924;BME280;40825;52.270;20.984;2023-02-26T03:31:35;99485.87;;;-0.27;86.16
54924;BME280;40825;52.270;20.984;2023-02-26T03:34:12;99489.27;;;-0.26;86.42
54924;BME280;40825;52.270;20.984;2023-02-26T03:36:51;99496.04;;;-0.24;85.85
54924;BME280;40825;52.270;20.984;2023-02-26T03:39:33;99497.77;;;-0.25;85.85
54924;BME280;40825;52.270;20.984;2023-02-26T03:42:07;99502.34;;;-0.26;87.23
54924;BME280;40825;52.270;20.984;2023-02-26T03:44:39;99507.52;;;-0.25;86.81
54924;BME280;40825;52.270;20.984;2023-02-26T03:47:12;99510.27;;;-0.24;86.86
54924;BME280;40825;52.270;20.984;2023-02-26T03:52:08;99522.11;;;-0.22;85.71
54924;BME280;40825;52.270;20.984;2023-02-26T03:54:49;99519.45;;;-0.23;85.48
54924;BME280;40825;52.270;20.984;2023-02-26T03:57:16;99523.20;;;-0.24;84.94
54924;BME280;40825;52.270;20.984;2023-02-26T03:59:42;99525.53;;;-0.23;84.64
54924;BME280;40825;52.270;20.984;2023-02-26T04:02:11;99534.15;;;-0.25;84.54
54924;BME280;40825;52.270;20.984;2023-02-26T04:04:46;99530.58;;;-0.25;85.10
54924;BME280;40825;52.270;20.984;2023-02-26T04:07:15;99535.22;;;-0.24;85.26
54924;BME280;40825;52.270;20.984;2023-02-26T04:09:43;99535.89;;;-0.22;85.65
54924;BME280;40825;52.270;20.984;2023-02-26T04:12:09;99535.96;;;-0.18;85.59
54924;BME280;40825;52.270;20.984;2023-02-26T04:14:34;99540.80;;;-0.14;85.92
54924;BME280;40825;52.270;20.984;2023-02-26T04:17:00;99543.05;;;-0.12;85.59
54924;BME280;40825;52.270;20.984;2023-02-26T04:19:25;99552.64;;;-0.12;86.11
54924;BME280;40825;52.270;20.984;2023-02-26T04:21:51;99558.20;;;-0.11;85.92
54924;BME280;40825;52.270;20.984;2023-02-26T04:24:16;99565.23;;;-0.12;86.14
54924;BME280;40825;52.270;20.984;2023-02-26T04:26:42;99570.07;;;-0.11;85.26
54924;BME280;40825;52.270;20.984;2023-02-26T04:29:07;99575.48;;;-0.15;84.67
54924;BME280;40825;52.270;20.984;2023-02-26T04:31:32;99576.27;;;-0.18;84.90
54924;BME280;40825;52.270;20.984;2023-02-26T04:33:58;99580.17;;;-0.20;84.29
54924;BME280;40825;52.270;20.984;2023-02-26T04:36:23;99580.13;;;-0.23;84.85
54924;BME280;40825;52.270;20.984;2023-02-26T04:38:49;99581.41;;;-0.24;84.65
54924;BME280;40825;52.270;20.984;2023-02-26T04:41:14;99584.02;;;-0.24;84.48
54924;BME280;40825;52.270;20.984;2023-02-26T04:43:40;99584.17;;;-0.24;84.58
54924;BME280;40825;52.270;20.984;2023-02-26T04:46:05;99591.41;;;-0.24;83.97
54924;BME280;40825;52.270;20.984;2023-02-26T04:48:31;99590.09;;;-0.27;84.06
54924;BME280;40825;52.270;20.984;2023-02-26T04:50:56;99592.38;;;-0.30;84.07
54924;BME280;40825;52.270;20.984;2023-02-26T04:53:22;99598.34;;;-0.32;84.81
54924;BME280;40825;52.270;20.984;2023-02-26T04:55:48;99604.25;;;-0.32;84.97
54924;BME280;40825;52.270;20.984;2023-02-26T04:58:14;99611.52;;;-0.31;84.83
54924;BME280;40825;52.270;20.984;2023-02-26T05:00:40;99612.20;;;-0.28;84.39
54924;BME280;40825;52.270;20.984;2023-02-26T05:03:06;99622.61;;;-0.29;84.43
54924;BME280;40825;52.270;20.984;2023-02-26T05:05:32;99619.66;;;-0.30;84.12
54924;BME280;40825;52.270;20.984;2023-02-26T05:07:58;99624.44;;;-0.32;84.59
54924;BME280;40825;52.270;20.984;2023-02-26T05:10:24;99630.29;;;-0.31;85.02
54924;BME280;40825;52.270;20.984;2023-02-26T05:12:50;99629.30;;;-0.28;85.27
54924;BME280;40825;52.270;20.984;2023-02-26T05:15:15;99632.83;;;-0.26;85.60
54924;BME280;40825;52.270;20.984;2023-02-26T05:17:41;99639.84;;;-0.24;85.64
54924;BME280;40825;52.270;20.984;2023-02-26T05:20:07;99648.39;;;-0.24;85.26
54924;BME280;40825;52.270;20.984;2023-02-26T05:22:37;99650.78;;;-0.25;84.99
54924;BME280;40825;52.270;20.984;2023-02-26T05:25:04;99655.48;;;-0.30;85.47
54924;BME280;40825;52.270;20.984;2023-02-26T05:27:31;99659.25;;;-0.31;85.08
54924;BME280;40825;52.270;20.984;2023-02-26T05:29:56;99662.98;;;-0.31;85.08
54924;BME280;40825;52.270;20.984;2023-02-26T05:32:22;99666.45;;;-0.31;85.40
54924;BME280;40825;52.270;20.984;2023-02-26T05:34:47;99670.50;;;-0.29;85.80
54924;BME280;40825;52.270;20.984;2023-02-26T05:37:13;99674.86;;;-0.27;85.56
54924;BME280;40825;52.270;20.984;2023-02-26T05:39:38;99677.49;;;-0.25;85.46
54924;BME280;40825;52.270;20.984;2023-02-26T05:42:06;99684.14;;;-0.25;85.65
54924;BME280;40825;52.270;20.984;2023-02-26T05:44:32;99684.98;;;-0.25;85.67
54924;BME280;40825;52.270;20.984;2023-02-26T05:46:57;99694.82;;;-0.27;85.13
54924;BME280;40825;52.270;20.984;2023-02-26T05:49:23;99707.05;;;-0.31;85.10
54924;BME280;40825;52.270;20.984;2023-02-26T05:51:48;99716.27;;;-0.35;84.95
54924;BME280;40825;52.270;20.984;2023-02-26T05:54:14;99728.30;;;-0.40;83.86
54924;BME280;40825;52.270;20.984;2023-02-26T05:56:39;99733.97;;;-0.47;83.14
54924;BME280;40825;52.270;20.984;2023-02-26T05:59:05;99742.36;;;-0.59;81.30
54924;BME280;40825;52.270;20.984;2023-02-26T06:01:31;99744.87;;;-0.72;80.28
54924;BME280;40825;52.270;20.984;2023-02-26T06:03:56;99749.25;;;-0.82;80.13
54924;BME280;40825;52.270;20.984;2023-02-26T06:06:22;99751.52;;;-0.89;80.55
54924;BME280;40825;52.270;20.984;2023-02-26T06:08:47;99757.44;;;-0.92;79.56
54924;BME280;40825;52.270;20.984;2023-02-26T06:11:13;99763.63;;;-0.95;80.41
54924;BME280;40825;52.270;20.984;2023-02-26T06:13:38;99766.23;;;-0.95;80.90
54924;BME280;40825;52.270;20.984;2023-02-26T06:16:04;99774.34;;;-0.94;80.98
54924;BME280;40825;52.270;20.984;2023-02-26T06:18:30;99780.41;;;-0.93;80.23
54924;BME280;40825;52.270;20.984;2023-02-26T06:20:58;99779.71;;;-0.95;80.28
54924;BME280;40825;52.270;20.984;2023-02-26T06:23:23;99786.16;;;-0.97;80.01
54924;BME280;40825;52.270;20.984;2023-02-26T06:25:50;99792.25;;;-0.99;79.82
54924;BME280;40825;52.270;20.984;2023-02-26T06:28:17;99794.03;;;-1.00;79.77
54924;BME280;40825;52.270;20.984;2023-02-26T06:30:43;99803.51;;;-1.02;80.42
54924;BME280;40825;52.270;20.984;2023-02-26T06:33:09;99808.75;;;-1.02;80.02
54924;BME280;40825;52.270;20.984;2023-02-26T06:35:34;99812.93;;;-1.04;79.84
54924;BME280;40825;52.270;20.984;2023-02-26T06:38:00;99816.13;;;-1.05;80.43
54924;BME280;40825;52.270;20.984;2023-02-26T06:40:25;99825.86;;;-1.04;80.72
54924;BME280;40825;52.270;20.984;2023-02-26T06:42:51;99829.70;;;-1.04;80.32
54924;BME280;40825;52.270;20.984;2023-02-26T06:45:16;99832.12;;;-1.06;80.39
54924;BME280;40825;52.270;20.984;2023-02-26T06:47:42;99832.76;;;-1.05;79.65
54924;BME280;40825;52.270;20.984;2023-02-26T06:50:08;99837.50;;;-1.05;79.73
54924;BME280;40825;52.270;20.984;2023-02-26T06:52:34;99840.57;;;-1.05;79.73
54924;BME280;40825;52.270;20.984;2023-02-26T06:55:00;99846.40;;;-1.01;79.71
54924;BME280;40825;52.270;20.984;2023-02-26T06:57:25;99849.31;;;-0.99;79.75
54924;BME280;40825;52.270;20.984;2023-02-26T06:59:51;99858.79;;;-0.95;79.73
54924;BME280;40825;52.270;20.984;2023-02-26T07:02:18;99861.89;;;-0.90;78.82
54924;BME280;40825;52.270;20.984;2023-02-26T07:04:44;99860.81;;;-0.88;79.64
54924;BME280;40825;52.270;20.984;2023-02-26T07:07:10;99863.89;;;-0.80;79.92
54924;BME280;40825;52.270;20.984;2023-02-26T07:09:36;99868.98;;;-0.75;78.20
54924;BME280;40825;52.270;20.984;2023-02-26T07:12:03;99878.57;;;-0.72;76.16
54924;BME280;40825;52.270;20.984;2023-02-26T07:14:32;99882.48;;;-0.73;75.00
54924;BME280;40825;52.270;20.984;2023-02-26T07:16:59;99891.02;;;-0.73;76.55
54924;BME280;40825;52.270;20.984;2023-02-26T07:19:25;99894.77;;;-0.67;76.48
54924;BME280;40825;52.270;20.984;2023-02-26T07:21:50;99897.41;;;-0.65;76.12
54924;BME280;40825;52.270;20.984;2023-02-26T07:24:16;99897.08;;;-0.62;76.90
54924;BME280;40825;52.270;20.984;2023-02-26T07:26:41;99900.24;;;-0.58;76.80
54924;BME280;40825;52.270;20.984;2023-02-26T07:29:07;99902.61;;;-0.52;77.41
54924;BME280;40825;52.270;20.984;2023-02-26T07:31:32;99908.77;;;-0.49;76.68
54924;BME280;40825;52.270;20.984;2023-02-26T07:33:58;99910.81;;;-0.52;76.70
54924;BME280;40825;52.270;20.984;2023-02-26T07:36:23;99917.71;;;-0.53;76.57
54924;BME280;40825;52.270;20.984;2023-02-26T07:38:49;99923.02;;;-0.52;77.02
54924;BME280;40825;52.270;20.984;2023-02-26T07:41:14;99924.64;;;-0.51;76.40
54924;BME280;40825;52.270;20.984;2023-02-26T07:43:40;99932.69;;;-0.50;77.16
54924;BME280;40825;52.270;20.984;2023-02-26T07:46:07;99935.12;;;-0.48;76.69
54924;BME280;40825;52.270;20.984;2023-02-26T07:48:33;99943.05;;;-0.47;75.24
54924;BME280;40825;52.270;20.984;2023-02-26T07:50:59;99941.37;;;-0.52;75.00
54924;BME280;40825;52.270;20.984;2023-02-26T07:53:24;99946.54;;;-0.55;74.99
54924;BME280;40825;52.270;20.984;2023-02-26T07:55:50;99952.45;;;-0.57;76.95
54924;BME280;40825;52.270;20.984;2023-02-26T07:58:16;99957.04;;;-0.53;75.30
54924;BME280;40825;52.270;20.984;2023-02-26T08:00:42;99963.52;;;-0.56;74.85
54924;BME280;40825;52.270;20.984;2023-02-26T08:03:08;99966.49;;;-0.53;74.21
54924;BME280;40825;52.270;20.984;2023-02-26T08:05:34;99965.67;;;-0.57;74.93
54924;BME280;40825;52.270;20.984;2023-02-26T08:08:00;99971.05;;;-0.51;75.18
54924;BME280;40825;52.270;20.984;2023-02-26T08:10:26;99973.84;;;-0.47;75.28
54924;BME280;40825;52.270;20.984;2023-02-26T08:12:52;99981.48;;;-0.40;75.89
54924;BME280;40825;52.270;20.984;2023-02-26T08:15:18;99983.80;;;-0.35;75.90
54924;BME280;40825;52.270;20.984;2023-02-26T08:17:43;99991.66;;;-0.31;74.95
54924;BME280;40825;52.270;20.984;2023-02-26T08:20:09;99995.86;;;-0.31;75.34
54924;BME280;40825;52.270;20.984;2023-02-26T08:22:36;99999.95;;;-0.30;75.53
54924;BME280;40825;52.270;20.984;2023-02-26T08:25:02;100007.08;;;-0.29;74.90
54924;BME280;40825;52.270;20.984;2023-02-26T08:27:28;100009.32;;;-0.28;74.66
54924;BME280;40825;52.270;20.984;2023-02-26T08:29:53;100014.79;;;-0.29;74.78
54924;BME280;40825;52.270;20.984;2023-02-26T08:32:19;100013.34;;;-0.28;75.19
54924;BME280;40825;52.270;20.984;2023-02-26T08:34:47;100018.96;;;-0.24;75.86
54924;BME280;40825;52.270;20.984;2023-02-26T08:37:13;100022.48;;;-0.20;74.71
54924;BME280;40825;52.270;20.984;2023-02-26T08:39:39;100027.05;;;-0.23;74.63
54924;BME280;40825;52.270;20.984;2023-02-26T08:42:06;100027.82;;;-0.23;75.01
54924;BME280;40825;52.270;20.984;2023-02-26T08:44:32;100037.81;;;-0.24;73.39
54924;BME280;40825;52.270;20.984;2023-02-26T08:46:58;100037.42;;;-0.30;72.25
54924;BME280;40825;52.270;20.984;2023-02-26T08:49:23;100041.91;;;-0.35;73.51
54924;BME280;40825;52.270;20.984;2023-02-26T08:51:49;100046.02;;;-0.37;72.08
54924;BME280;40825;52.270;20.984;2023-02-26T08:54:14;100052.14;;;-0.37;73.49
54924;BME280;40825;52.270;20.984;2023-02-26T08:56:40;100060.03;;;-0.37;72.87
54924;BME280;40825;52.270;20.984;2023-02-26T08:59:06;100060.06;;;-0.33;73.52
54924;BME280;40825;52.270;20.984;2023-02-26T09:01:31;100066.20;;;-0.33;72.79
54924;BME280;40825;52.270;20.984;2023-02-26T09:03:57;100069.81;;;-0.33;73.28
54924;BME280;40825;52.270;20.984;2023-02-26T09:06:22;100080.05;;;-0.34;73.18
54924;BME280;40825;52.270;20.984;2023-02-26T09:08:48;100088.59;;;-0.29;72.75
54924;BME280;40825;52.270;20.984;2023-02-26T09:11:13;100093.60;;;-0.31;71.48
54924;BME280;40825;52.270;20.984;2023-02-26T09:13:39;100095.51;;;-0.35;72.34
54924;BME280;40825;52.270;20.984;2023-02-26T09:16:05;100099.28;;;-0.32;73.79
54924;BME280;40825;52.270;20.984;2023-02-26T09:18:30;100106.22;;;-0.26;73.66
54924;BME280;40825;52.270;20.984;2023-02-26T09:20:56;100111.48;;;-0.22;73.98
54924;BME280;40825;52.270;20.984;2023-02-26T09:23:22;100113.36;;;-0.20;73.29
54924;BME280;40825;52.270;20.984;2023-02-26T09:25:52;100117.84;;;-0.21;71.81
54924;BME280;40825;52.270;20.984;2023-02-26T09:28:18;100117.84;;;-0.23;73.02
54924;BME280;40825;52.270;20.984;2023-02-26T09:30:44;100124.08;;;-0.20;73.32
54924;BME280;40825;52.270;20.984;2023-02-26T09:33:09;100128.96;;;-0.16;73.03
54924;BME280;40825;52.270;20.984;2023-02-26T09:35:35;100131.77;;;-0.14;74.26
54924;BME280;40825;52.270;20.984;2023-02-26T09:38:01;100134.50;;;-0.09;73.49
54924;BME280;40825;52.270;20.984;2023-02-26T09:45:47;100146.48;;;-0.02;72.87
54924;BME280;40825;52.270;20.984;2023-02-26T09:48:17;100146.55;;;-0.05;72.64
54924;BME280;40825;52.270;20.984;2023-02-26T09:50:47;100154.18;;;-0.08;73.19
54924;BME280;40825;52.270;20.984;2023-02-26T09:53:28;100162.33;;;-0.07;73.40
54924;BME280;40825;52.270;20.984;2023-02-26T09:56:15;100171.27;;;-0.07;72.78
54924;BME280;40825;52.270;20.984;2023-02-26T09:58:42;100177.46;;;-0.06;73.53
54924;BME280;40825;52.270;20.984;2023-02-26T10:04:03;100177.39;;;0.06;74.04
54924;BME280;40825;52.270;20.984;2023-02-26T10:06:37;100176.11;;;0.09;74.39
54924;BME280;40825;52.270;20.984;2023-02-26T10:11:58;100183.52;;;0.12;74.01
54924;BME280;40825;52.270;20.984;2023-02-26T10:14:30;100183.84;;;0.10;74.34
54924;BME280;40825;52.270;20.984;2023-02-26T10:17:12;100192.00;;;0.09;73.92
54924;BME280;40825;52.270;20.984;2023-02-26T10:19:44;100196.27;;;0.06;74.42
54924;BME280;40825;52.270;20.984;2023-02-26T10:22:29;100198.60;;;0.05;74.57
54924;BME280;40825;52.270;20.984;2023-02-26T10:25:02;100200.16;;;0.06;74.79
54924;BME280;40825;52.270;20.984;2023-02-26T10:27:37;100201.56;;;0.05;74.93
54924;BME280;40825;52.270;20.984;2023-02-26T10:30:12;100208.90;;;0.08;74.93
54924;BME280;40825;52.270;20.984;2023-02-26T10:32:41;100214.30;;;0.10;74.79
54924;BME280;40825;52.270;20.984;2023-02-26T10:35:16;100218.35;;;0.10;75.07
54924;BME280;40825;52.270;20.984;2023-02-26T10:37:50;100219.84;;;0.11;74.92
54924;BME280;40825;52.270;20.984;2023-02-26T10:40:27;100221.38;;;0.09;75.13
54924;BME280;40825;52.270;20.984;2023-02-26T10:43:33;100226.94;;;0.10;74.65
54924;BME280;40825;52.270;20.984;2023-02-26T10:49:31;100237.38;;;0.06;73.98
54924;BME280;40825;52.270;20.984;2023-02-26T10:52:16;100244.23;;;0.10;73.27
54924;BME280;40825;52.270;20.984;2023-02-26T10:55:07;100245.69;;;0.11;73.50
54924;BME280;40825;52.270;20.984;2023-02-26T10:57:45;100247.61;;;0.20;73.46
54924;BME280;40825;52.270;20.984;2023-02-26T11:00:18;100245.20;;;0.28;70.91
54924;BME280;40825;52.270;20.984;2023-02-26T11:02:49;100251.91;;;0.36;71.14
54924;BME280;40825;52.270;20.984;2023-02-26T11:05:22;100254.84;;;0.43;71.64
54924;BME280;40825;52.270;20.984;2023-02-26T11:07:53;100252.31;;;0.52;70.28
54924;BME280;40825;52.270;20.984;2023-02-26T11:10:23;100256.19;;;0.54;68.85
54924;BME280;40825;52.270;20.984;2023-02-26T11:12:50;100263.04;;;0.58;69.60
54924;BME280;40825;52.270;20.984;2023-02-26T11:15:19;100264.91;;;0.61;69.10
54924;BME280;40825;52.270;20.984;2023-02-26T11:17:47;100268.02;;;0.66;69.43
54924;BME280;40825;52.270;20.984;2023-02-26T11:22:49;100274.55;;;0.71;69.45
54924;BME280;40825;52.270;20.984;2023-02-26T11:25:19;100276.98;;;0.78;70.45
54924;BME280;40825;52.270;20.984;2023-02-26T11:27:49;100279.69;;;0.88;69.78
54924;BME280;40825;52.270;20.984;2023-02-26T11:30:19;100277.09;;;0.89;68.46
54924;BME280;40825;52.270;20.984;2023-02-26T11:32:49;100282.54;;;0.87;70.08
54924;BME280;40825;52.270;20.984;2023-02-26T11:35:16;100293.20;;;0.91;69.72
54924;BME280;40825;52.270;20.984;2023-02-26T11:37:55;100295.80;;;0.92;69.48
54924;BME280;40825;52.270;20.984;2023-02-26T11:40:33;100298.56;;;0.80;66.20
54924;BME280;40825;52.270;20.984;2023-02-26T11:43:04;100301.83;;;0.70;66.06
54924;BME280;40825;52.270;20.984;2023-02-26T11:45:34;100304.63;;;0.64;66.66
54924;BME280;40825;52.270;20.984;2023-02-26T11:48:06;100308.48;;;0.64;67.43
54924;BME280;40825;52.270;20.984;2023-02-26T11:50:41;100314.58;;;0.62;67.66
54924;BME280;40825;52.270;20.984;2023-02-26T11:53:19;100317.23;;;0.57;67.22
54924;BME280;40825;52.270;20.984;2023-02-26T11:55:51;100315.81;;;0.49;66.72
54924;BME280;40825;52.270;20.984;2023-02-26T11:58:22;100320.93;;;0.46;67.27
54924;BME280;40825;52.270;20.984;2023-02-26T12:00:51;100325.84;;;0.44;67.04
54924;BME280;40825;52.270;20.984;2023-02-26T12:03:19;100330.73;;;0.42;67.44
54924;BME280;40825;52.270;20.984;2023-02-26T12:05:45;100331.52;;;0.39;68.21
54924;BME280;40825;52.270;20.984;2023-02-26T12:08:27;100337.31;;;0.41;68.72
54924;BME280;40825;52.270;20.984;2023-02-26T12:16:25;100354.78;;;0.52;68.44
54924;BME280;40825;52.270;20.984;2023-02-26T12:22:05;100358.32;;;0.75;68.84
54924;BME280;40825;52.270;20.984;2023-02-26T12:34:16;100369.60;;;0.89;67.95
54924;BME280;40825;52.270;20.984;2023-02-26T12:42:41;100372.98;;;0.89;67.16
54924;BME280;40825;52.270;20.984;2023-02-26T12:45:52;100372.90;;;0.81;66.65
54924;BME280;40825;52.270;20.984;2023-02-26T12:48:05;100378.23;;;0.74;66.05
54924;BME280;40825;52.270;20.984;2023-02-26T12:50:43;100383.27;;;0.70;65.95
54924;BME280;40825;52.270;20.984;2023-02-26T13:19:48;100408.02;;;1.27;65.34
54924;BME280;40825;52.270;20.984;2023-02-26T13:22:32;100409.42;;;1.25;65.12
54924;BME280;40825;52.270;20.984;2023-02-26T13:25:03;100413.90;;;1.21;64.10
54924;BME280;40825;52.270;20.984;2023-02-26T13:27:36;100418.63;;;1.14;63.61
54924;BME280;40825;52.270;20.984;2023-02-26T13:32:37;100412.84;;;1.03;64.42
54924;BME280;40825;52.270;20.984;2023-02-26T13:35:11;100412.90;;;1.06;64.00
54924;BME280;40825;52.270;20.984;2023-02-26T13:37:45;100414.02;;;1.09;63.78
54924;BME280;40825;52.270;20.984;2023-02-26T13:42:56;100420.45;;;1.19;64.78
54924;BME280;40825;52.270;20.984;2023-02-26T13:51:08;100431.67;;;1.21;63.69
54924;BME280;40825;52.270;20.984;2023-02-26T13:56:07;100432.73;;;1.18;62.64
54924;BME280;40825;52.270;20.984;2023-02-26T13:58:40;100440.15;;;1.18;63.21
54924;BME280;40825;52.270;20.984;2023-02-26T14:01:18;100439.12;;;1.20;64.67
54924;BME280;40825;52.270;20.984;2023-02-26T14:06:39;100447.48;;;1.29;63.68
54924;BME280;40825;52.270;20.984;2023-02-26T14:16:52;100446.63;;;1.41;65.22
54924;BME280;40825;52.270;20.984;2023-02-26T14:19:26;100447.70;;;1.43;63.73
54924;BME280;40825;52.270;20.984;2023-02-26T14:22:19;100449.24;;;1.42;62.68
54924;BME280;40825;52.270;20.984;2023-02-26T14:32:33;100463.46;;;1.31;64.29
54924;BME280;40825;52.270;20.984;2023-02-26T14:35:05;100466.88;;;1.32;64.12
54924;BME280;40825;52.270;20.984;2023-02-26T14:37:34;100468.41;;;1.30;63.90
54924;BME280;40825;52.270;20.984;2023-02-26T14:40:13;100473.90;;;1.27;63.11
54924;BME280;40825;52.270;20.984;2023-02-26T14:42:47;100477.77;;;1.21;63.48
54924;BME280;40825;52.270;20.984;2023-02-26T14:47:39;100484.22;;;1.13;64.19
54924;BME280;40825;52.270;20.984;2023-02-26T14:50:06;100484.48;;;1.12;64.32
54924;BME280;40825;52.270;20.984;2023-02-26T14:53:36;100488.69;;;1.12;63.85
54924;BME280;40825;52.270;20.984;2023-02-26T14:56:33;100498.38;;;1.09;65.03
54924;BME280;40825;52.270;20.984;2023-02-26T15:12:33;100505.89;;;1.09;65.37
54924;BME280;40825;52.270;20.984;2023-02-26T15:25:43;100520.67;;;1.17;66.88
54924;BME280;40825;52.270;20.984;2023-02-26T15:28:14;100525.01;;;1.18;66.27
54924;BME280;40825;52.270;20.984;2023-02-26T15:30:46;100527.93;;;1.16;66.45
54924;BME280;40825;52.270;20.984;2023-02-26T15:33:13;100532.85;;;1.14;66.48
54924;BME280;40825;52.270;20.984;2023-02-26T15:35:42;100538.33;;;1.12;66.35
54924;BME280;40825;52.270;20.984;2023-02-26T15:38:08;100544.52;;;1.09;66.46
54924;BME280;40825;52.270;20.984;2023-02-26T15:40:35;100542.36;;;1.07;66.53
54924;BME280;40825;52.270;20.984;2023-02-26T15:43:04;100549.94;;;1.04;66.96
54924;BME280;40825;52.270;20.984;2023-02-26T15:45:32;100550.38;;;1.03;66.80
54924;BME280;40825;52.270;20.984;2023-02-26T15:48:30;100553.86;;;0.99;66.86
54924;BME280;40825;52.270;20.984;2023-02-26T15:50:59;100559.30;;;0.97;66.74